^^
Meteo Knjazevac Station Historical Data
Daily Summary for January 7, 2021 Units:  Both    English   Metric
Daily Weekly Monthly Yearly Custom
  High: Low: Average:
Temperature: 78.8 °F /  26 °C 43.2 °F /  6.2 °C 60.8 °F /  16 °C
Dew Point: 54.4 °F /  12.4 °C 40.1 °F /  4.5 °C 46.1 °F /  7.8 °C
Humidity: 93% 34% 63%
Wind Speed: 12mph /  19.3km/h - 2.6mph /  4.2km/h
Wind Gust: 21mph /  33.8km/h - -
Wind- - SSE
Pressure: 30.34 in /  1027.3 hPa 30.21 in /  1022.9 hPa -
Precipitation: 0.00 in /  0 mm    
Historical Graphs
 
 
Tabular Data for January 7, 2021
Time Temperature Dew Point Pressure Wind Wind Speed Wind Gust Humidity Rainfall Rate (Hourly) solar Conditions
00:00 52.9 °F /  11.6 °C 46.2 °F /  7.9 °C 30.30in /  1026hPa SSW 1mph /  1.6km/h 5mph /  8km/h 78% 0.00in /  0mm 0 W/m2
00:10 52.7 °F /  11.5 °C 46 °F /  7.8 °C 30.30in /  1026hPa SSE 1mph /  1.6km/h 4mph /  6.4km/h 78% 0.00in /  0mm 0 W/m2
00:20 52.5 °F /  11.4 °C 45.9 °F /  7.7 °C 30.30in /  1026hPa Calm   2mph /  3.2km/h 78% 0.00in /  0mm 0 W/m2
00:30 52.2 °F /  11.2 °C 45.5 °F /  7.5 °C 30.30in /  1026hPa Calm     78% 0.00in /  0mm 0 W/m2
00:40 51.8 °F /  11 °C 45.2 °F /  7.3 °C 30.31in /  1026.3hPa Calm   1mph /  1.6km/h 78% 0.00in /  0mm 0 W/m2
00:50 51.2 °F /  10.7 °C 44.9 °F /  7.2 °C 30.31in /  1026.3hPa NW 1mph /  1.6km/h 2mph /  3.2km/h 79% 0.00in /  0mm 0 W/m2
01:00 50.7 °F /  10.4 °C 44.4 °F /  6.9 °C 30.31in /  1026.3hPa NW 1mph /  1.6km/h 2mph /  3.2km/h 79% 0.00in /  0mm 0 W/m2
01:10 50.4 °F /  10.2 °C 44.4 °F /  6.9 °C 30.31in /  1026.3hPa West 2mph /  3.2km/h 4mph /  6.4km/h 80% 0.00in /  0mm 0 W/m2
01:20 50.2 °F /  10.1 °C 44.2 °F /  6.8 °C 30.31in /  1026.3hPa SSW 1mph /  1.6km/h 3mph /  4.8km/h 80% 0.00in /  0mm 0 W/m2
01:30 50 °F /  10 °C 44.1 °F /  6.7 °C 30.31in /  1026.3hPa Calm   2mph /  3.2km/h 80% 0.00in /  0mm 0 W/m2
01:40 49.8 °F /  9.9 °C 44.2 °F /  6.8 °C 30.31in /  1026.3hPa Calm   1mph /  1.6km/h 81% 0.00in /  0mm 0 W/m2
01:50 49.6 °F /  9.8 °C 44 °F /  6.7 °C 30.31in /  1026.3hPa North 1mph /  1.6km/h 2mph /  3.2km/h 81% 0.00in /  0mm 0 W/m2
02:00 49.5 °F /  9.7 °C 43.9 °F /  6.6 °C 30.31in /  1026.3hPa Calm   1mph /  1.6km/h 81% 0.00in /  0mm 0 W/m2
02:10 49.1 °F /  9.5 °C 43.5 °F /  6.4 °C 30.31in /  1026.3hPa Calm   2mph /  3.2km/h 81% 0.00in /  0mm 0 W/m2
02:20 48.7 °F /  9.3 °C 43.2 °F /  6.2 °C 30.31in /  1026.3hPa NNW 1mph /  1.6km/h 2mph /  3.2km/h 81% 0.00in /  0mm 0 W/m2
02:30 48.4 °F /  9.1 °C 42.8 °F /  6 °C 30.32in /  1026.6hPa Calm   2mph /  3.2km/h 81% 0.00in /  0mm 0 W/m2
02:40 48 °F /  8.9 °C 43 °F /  6.1 °C 30.31in /  1026.3hPa Calm   2mph /  3.2km/h 83% 0.00in /  0mm 0 W/m2
02:50 47.5 °F /  8.6 °C 42.6 °F /  5.9 °C 30.32in /  1026.6hPa WSW 1mph /  1.6km/h 2mph /  3.2km/h 83% 0.00in /  0mm 0 W/m2
03:00 46.9 °F /  8.3 °C 42.4 °F /  5.8 °C 30.31in /  1026.3hPa Calm   2mph /  3.2km/h 84% 0.00in /  0mm 0 W/m2
03:10 46.6 °F /  8.1 °C 42 °F /  5.6 °C 30.31in /  1026.3hPa Calm   1mph /  1.6km/h 84% 0.00in /  0mm 0 W/m2
03:20 46.4 °F /  8 °C 42.1 °F /  5.6 °C 30.32in /  1026.6hPa WNW 1mph /  1.6km/h 2mph /  3.2km/h 85% 0.00in /  0mm 0 W/m2
03:30 46.2 °F /  7.9 °C 42 °F /  5.6 °C 30.32in /  1026.6hPa Calm   2mph /  3.2km/h 85% 0.00in /  0mm 0 W/m2
03:40 46.2 °F /  7.9 °C 42.3 °F /  5.7 °C 30.32in /  1026.6hPa Calm   2mph /  3.2km/h 86% 0.00in /  0mm 0 W/m2
03:50 46 °F /  7.8 °C 42.1 °F /  5.6 °C 30.32in /  1026.6hPa Calm   2mph /  3.2km/h 86% 0.00in /  0mm 0 W/m2
04:00 46 °F /  7.8 °C 42.1 °F /  5.6 °C 30.32in /  1026.6hPa Calm   2mph /  3.2km/h 86% 0.00in /  0mm 0 W/m2
04:10 46 °F /  7.8 °C 42 °F /  5.6 °C 30.32in /  1026.6hPa Calm   1mph /  1.6km/h 86% 0.00in /  0mm 0 W/m2
04:20 45.5 °F /  7.5 °C 41.6 °F /  5.3 °C 30.32in /  1026.6hPa NNW 1mph /  1.6km/h 2mph /  3.2km/h 86% 0.00in /  0mm 0 W/m2
04:30 45.3 °F /  7.4 °C 41.3 °F /  5.2 °C 30.32in /  1026.6hPa NNW 1mph /  1.6km/h 2mph /  3.2km/h 86% 0.00in /  0mm 0 W/m2
04:40 45 °F /  7.2 °C 41 °F /  5 °C 30.32in /  1026.6hPa West 1mph /  1.6km/h 2mph /  3.2km/h 86% 0.00in /  0mm 0 W/m2
04:50 44.5 °F /  6.9 °C 40.6 °F /  4.8 °C 30.32in /  1026.6hPa West 2mph /  3.2km/h 3mph /  4.8km/h 86% 0.00in /  0mm 0 W/m2
05:00 44.2 °F /  6.8 °C 41.2 °F /  5.1 °C 30.32in /  1026.6hPa WNW 2mph /  3.2km/h 5mph /  8km/h 89% 0.00in /  0mm 0 W/m2
05:10 44.2 °F /  6.8 °C 41.2 °F /  5.1 °C 30.32in /  1026.6hPa Calm   4mph /  6.4km/h 89% 0.00in /  0mm 0 W/m2
05:20 44.2 °F /  6.8 °C 41.2 °F /  5.1 °C 30.32in /  1026.6hPa West 1mph /  1.6km/h 2mph /  3.2km/h 89% 0.00in /  0mm 0 W/m2
05:30 44.1 °F /  6.7 °C 40.7 °F /  4.8 °C 30.32in /  1026.6hPa Calm   1mph /  1.6km/h 88% 0.00in /  0mm 0 W/m2
05:40 43.9 °F /  6.6 °C 40.6 °F /  4.8 °C 30.32in /  1026.6hPa Calm   1mph /  1.6km/h 88% 0.00in /  0mm 0 W/m2
05:50 43.7 °F /  6.5 °C 40.7 °F /  4.8 °C 30.32in /  1026.6hPa Calm   1mph /  1.6km/h 89% 0.00in /  0mm 0 W/m2
06:00 43.6 °F /  6.4 °C 40.6 °F /  4.8 °C 30.32in /  1026.6hPa Calm   2mph /  3.2km/h 89% 0.00in /  0mm 0 W/m2
06:10 43.3 °F /  6.3 °C 40.3 °F /  4.6 °C 30.32in /  1026.6hPa Calm   2mph /  3.2km/h 89% 0.00in /  0mm 9 W/m2
06:20 43.3 °F /  6.3 °C 40.3 °F /  4.6 °C 30.33in /  1027hPa Calm   2mph /  3.2km/h 89% 0.00in /  0mm 17 W/m2
06:30 43.3 °F /  6.3 °C 40.6 °F /  4.8 °C 30.33in /  1027hPa Calm   2mph /  3.2km/h 90% 0.00in /  0mm 27 W/m2
06:40 43.3 °F /  6.3 °C 40.3 °F /  4.6 °C 30.33in /  1027hPa Calm   1mph /  1.6km/h 89% 0.00in /  0mm 37 W/m2
06:50 43.2 °F /  6.2 °C 40.1 °F /  4.5 °C 30.33in /  1027hPa Calm   1mph /  1.6km/h 89% 0.00in /  0mm 66 W/m2
07:00 43.3 °F /  6.3 °C 40.3 °F /  4.6 °C 30.33in /  1027hPa Calm   2mph /  3.2km/h 89% 0.00in /  0mm 87 W/m2
07:10 43.3 °F /  6.3 °C 40.3 °F /  4.6 °C 30.33in /  1027hPa Calm   2mph /  3.2km/h 89% 0.00in /  0mm 119 W/m2
07:20 43.4 °F /  6.3 °C 40.7 °F /  4.8 °C 30.34in /  1027.3hPa Calm   1mph /  1.6km/h 90% 0.00in /  0mm 146 W/m2
07:30 43.7 °F /  6.5 °C 41 °F /  5 °C 30.34in /  1027.3hPa Calm   1mph /  1.6km/h 90% 0.00in /  0mm 176 W/m2
07:40 44.2 °F /  6.8 °C 42.1 °F /  5.6 °C 30.34in /  1027.3hPa Calm   1mph /  1.6km/h 92% 0.00in /  0mm 208 W/m2
07:50 45 °F /  7.2 °C 43.1 °F /  6.2 °C 30.34in /  1027.3hPa Calm   2mph /  3.2km/h 93% 0.00in /  0mm 239 W/m2
08:00 45.7 °F /  7.6 °C 43.8 °F /  6.6 °C 30.34in /  1027.3hPa Calm   2mph /  3.2km/h 93% 0.00in /  0mm 271 W/m2
08:10 46.5 °F /  8.1 °C 44 °F /  6.7 °C 30.34in /  1027.3hPa Calm   2mph /  3.2km/h 91% 0.00in /  0mm 300 W/m2
08:20 47.5 °F /  8.6 °C 45 °F /  7.2 °C 30.33in /  1027hPa WSW 1mph /  1.6km/h 2mph /  3.2km/h 91% 0.00in /  0mm 339 W/m2
08:30 48.6 °F /  9.2 °C 45.8 °F /  7.7 °C 30.33in /  1027hPa WSW 1mph /  1.6km/h 2mph /  3.2km/h 90% 0.00in /  0mm 370 W/m2
08:40 50.9 °F /  10.5 °C 47.8 °F /  8.8 °C 30.34in /  1027.3hPa Calm   3mph /  4.8km/h 89% 0.00in /  0mm 407 W/m2
08:50 53.2 °F /  11.8 °C 48.8 °F /  9.3 °C 30.34in /  1027.3hPa Calm   3mph /  4.8km/h 85% 0.00in /  0mm 443 W/m2
09:00 55.3 °F /  12.9 °C 49.6 °F /  9.8 °C 30.34in /  1027.3hPa NE 2mph /  3.2km/h 6mph /  9.7km/h 81% 0.00in /  0mm 475 W/m2
09:10 57 °F /  13.9 °C 50.6 °F /  10.3 °C 30.34in /  1027.3hPa NNE 2mph /  3.2km/h 8mph /  12.9km/h 79% 0.00in /  0mm 509 W/m2
09:20 58.5 °F /  14.7 °C 51 °F /  10.6 °C 30.34in /  1027.3hPa NNE 3mph /  4.8km/h 9mph /  14.5km/h 76% 0.00in /  0mm 540 W/m2
09:30 59.6 °F /  15.3 °C 51.3 °F /  10.7 °C 30.34in /  1027.3hPa NE 2mph /  3.2km/h 9mph /  14.5km/h 74% 0.00in /  0mm 566 W/m2
09:40 61 °F /  16.1 °C 51.5 °F /  10.8 °C 30.34in /  1027.3hPa NE 2mph /  3.2km/h 7mph /  11.3km/h 71% 0.00in /  0mm 591 W/m2
09:50 62.1 °F /  16.7 °C 52.2 °F /  11.2 °C 30.33in /  1027hPa NE 3mph /  4.8km/h 10mph /  16.1km/h 70% 0.00in /  0mm 615 W/m2
10:00 63.5 °F /  17.5 °C 53.1 °F /  11.7 °C 30.33in /  1027hPa NNE 5mph /  8km/h 12mph /  19.3km/h 69% 0.00in /  0mm 637 W/m2
10:10 64.7 °F /  18.2 °C 53.9 °F /  12.2 °C 30.33in /  1027hPa North 1mph /  1.6km/h 7mph /  11.3km/h 68% 0.00in /  0mm 658 W/m2
10:20 65.9 °F /  18.8 °C 53.8 °F /  12.1 °C 30.32in /  1026.6hPa North 1mph /  1.6km/h 7mph /  11.3km/h 65% 0.00in /  0mm 679 W/m2
10:30 67.2 °F /  19.6 °C 54.2 °F /  12.3 °C 30.32in /  1026.6hPa NNE 5mph /  8km/h 7mph /  11.3km/h 63% 0.00in /  0mm 694 W/m2
10:40 68.5 °F /  20.3 °C 54 °F /  12.2 °C 30.32in /  1026.6hPa NNE 2mph /  3.2km/h 8mph /  12.9km/h 60% 0.00in /  0mm 715 W/m2
10:50 69.4 °F /  20.8 °C 54 °F /  12.2 °C 30.31in /  1026.3hPa North 3mph /  4.8km/h 8mph /  12.9km/h 58% 0.00in /  0mm 366 W/m2
11:00 70.9 °F /  21.6 °C 54.4 °F /  12.4 °C 30.31in /  1026.3hPa NNW 3mph /  4.8km/h 9mph /  14.5km/h 56% 0.00in /  0mm 745 W/m2
11:10 71.6 °F /  22 °C 54.1 °F /  12.3 °C 30.30in /  1026hPa North 6mph /  9.7km/h 12mph /  19.3km/h 54% 0.00in /  0mm 393 W/m2
11:20 73 °F /  22.8 °C 54.3 °F /  12.4 °C 30.30in /  1026hPa NNE 6mph /  9.7km/h 14mph /  22.5km/h 52% 0.00in /  0mm 751 W/m2
11:30 73.4 °F /  23 °C 54.2 °F /  12.3 °C 30.29in /  1025.6hPa North 6mph /  9.7km/h 19mph /  30.6km/h 51% 0.00in /  0mm 779 W/m2
11:40 73.3 °F /  22.9 °C 54.1 °F /  12.3 °C 30.29in /  1025.6hPa North 7mph /  11.3km/h 17mph /  27.4km/h 51% 0.00in /  0mm 788 W/m2
11:50 74.1 °F /  23.4 °C 53.7 °F /  12.1 °C 30.29in /  1025.6hPa North 6mph /  9.7km/h 15mph /  24.1km/h 49% 0.00in /  0mm 795 W/m2
12:00 74.5 °F /  23.6 °C 54.1 °F /  12.3 °C 30.28in /  1025.3hPa North 7mph /  11.3km/h 16mph /  25.7km/h 49% 0.00in /  0mm 800 W/m2
12:10 75.3 °F /  24.1 °C 54.2 °F /  12.3 °C 30.28in /  1025.3hPa NNE 5mph /  8km/h 15mph /  24.1km/h 48% 0.00in /  0mm 803 W/m2
12:20 76.1 °F /  24.5 °C 52.6 °F /  11.4 °C 30.28in /  1025.3hPa East 7mph /  11.3km/h 13mph /  20.9km/h 44% 0.00in /  0mm 724 W/m2
12:30 76.9 °F /  24.9 °C 53.3 °F /  11.8 °C 30.28in /  1025.3hPa ENE 5mph /  8km/h 11mph /  17.7km/h 44% 0.00in /  0mm 358 W/m2
12:40 77.5 °F /  25.3 °C 53.2 °F /  11.8 °C 30.28in /  1025.3hPa East 5mph /  8km/h 15mph /  24.1km/h 43% 0.00in /  0mm 432 W/m2
12:50 77.7 °F /  25.4 °C 53.4 °F /  11.9 °C 30.27in /  1024.9hPa NE 6mph /  9.7km/h 16mph /  25.7km/h 43% 0.00in /  0mm 477 W/m2
13:00 77.9 °F /  25.5 °C 53.6 °F /  12 °C 30.27in /  1024.9hPa ENE 5mph /  8km/h 17mph /  27.4km/h 43% 0.00in /  0mm 796 W/m2
13:10 78.1 °F /  25.6 °C 53.8 °F /  12.1 °C 30.26in /  1024.6hPa NNE 6mph /  9.7km/h 18mph /  29km/h 43% 0.00in /  0mm 790 W/m2
13:20 78.1 °F /  25.6 °C 53.1 °F /  11.7 °C 30.26in /  1024.6hPa NNE 7mph /  11.3km/h 18mph /  29km/h 42% 0.00in /  0mm 783 W/m2
13:30 78.3 °F /  25.7 °C 53.3 °F /  11.8 °C 30.26in /  1024.6hPa NE 3mph /  4.8km/h 14mph /  22.5km/h 42% 0.00in /  0mm 773 W/m2
13:40 78.6 °F /  25.9 °C 53.6 °F /  12 °C 30.26in /  1024.6hPa NE 5mph /  8km/h 15mph /  24.1km/h 42% 0.00in /  0mm 762 W/m2
13:50 78.4 °F /  25.8 °C 52.1 °F /  11.2 °C 30.26in /  1024.6hPa NNE 6mph /  9.7km/h 19mph /  30.6km/h 40% 0.00in /  0mm 750 W/m2
14:00 78.4 °F /  25.8 °C 53.4 °F /  11.9 °C 30.26in /  1024.6hPa North 2mph /  3.2km/h 14mph /  22.5km/h 42% 0.00in /  0mm 736 W/m2
14:10 78.4 °F /  25.8 °C 52.1 °F /  11.2 °C 30.25in /  1024.3hPa NNE 8mph /  12.9km/h 14mph /  22.5km/h 40% 0.00in /  0mm 720 W/m2
14:20 78.4 °F /  25.8 °C 51.4 °F /  10.8 °C 30.25in /  1024.3hPa North 3mph /  4.8km/h 14mph /  22.5km/h 39% 0.00in /  0mm 703 W/m2
14:30 78.5 °F /  25.8 °C 52.2 °F /  11.2 °C 30.25in /  1024.3hPa ENE 5mph /  8km/h 20mph /  32.2km/h 40% 0.00in /  0mm 685 W/m2
14:40 78.8 °F /  26 °C 51 °F /  10.6 °C 30.25in /  1024.3hPa NE 8mph /  12.9km/h 18mph /  29km/h 38% 0.00in /  0mm 666 W/m2
14:50 78.6 °F /  25.9 °C 50.9 °F /  10.5 °C 30.24in /  1023.9hPa NE 3mph /  4.8km/h 17mph /  27.4km/h 38% 0.00in /  0mm 645 W/m2
15:00 78.6 °F /  25.9 °C 50.9 °F /  10.5 °C 30.24in /  1023.9hPa NE 7mph /  11.3km/h 17mph /  27.4km/h 38% 0.00in /  0mm 623 W/m2
15:10 78.6 °F /  25.9 °C 50.9 °F /  10.5 °C 30.24in /  1023.9hPa NNE 5mph /  8km/h 21mph /  33.8km/h 38% 0.00in /  0mm 600 W/m2
15:20 78.5 °F /  25.8 °C 48.6 °F /  9.2 °C 30.24in /  1023.9hPa NE 5mph /  8km/h 21mph /  33.8km/h 35% 0.00in /  0mm 575 W/m2
15:30 77.9 °F /  25.5 °C 48.8 °F /  9.3 °C 30.23in /  1023.6hPa ENE 5mph /  8km/h 17mph /  27.4km/h 36% 0.00in /  0mm 550 W/m2
15:40 77.9 °F /  25.5 °C 48 °F /  8.9 °C 30.23in /  1023.6hPa NE 6mph /  9.7km/h 20mph /  32.2km/h 35% 0.00in /  0mm 524 W/m2
15:50 77.5 °F /  25.3 °C 47.7 °F /  8.7 °C 30.22in /  1023.2hPa ENE 6mph /  9.7km/h 13mph /  20.9km/h 35% 0.00in /  0mm 497 W/m2
16:00 77.5 °F /  25.3 °C 47.7 °F /  8.7 °C 30.23in /  1023.6hPa ENE 6mph /  9.7km/h 15mph /  24.1km/h 35% 0.00in /  0mm 468 W/m2
16:10 77.4 °F /  25.2 °C 46.8 °F /  8.2 °C 30.22in /  1023.2hPa NE 5mph /  8km/h 16mph /  25.7km/h 34% 0.00in /  0mm 440 W/m2
16:20 77.2 °F /  25.1 °C 47.4 °F /  8.6 °C 30.22in /  1023.2hPa NE 2mph /  3.2km/h 16mph /  25.7km/h 35% 0.00in /  0mm 410 W/m2
16:30 76.8 °F /  24.9 °C 46.3 °F /  7.9 °C 30.22in /  1023.2hPa NE 12mph /  19.3km/h 18mph /  29km/h 34% 0.00in /  0mm 381 W/m2
16:40 76.7 °F /  24.8 °C 47 °F /  8.3 °C 30.22in /  1023.2hPa NE 3mph /  4.8km/h 18mph /  29km/h 35% 0.00in /  0mm 351 W/m2
16:50 76.5 °F /  24.7 °C 46.8 °F /  8.2 °C 30.22in /  1023.2hPa ENE 6mph /  9.7km/h 15mph /  24.1km/h 35% 0.00in /  0mm 320 W/m2
17:00 76.2 °F /  24.6 °C 46.5 °F /  8.1 °C 30.22in /  1023.2hPa ENE 5mph /  8km/h 16mph /  25.7km/h 35% 0.00in /  0mm 289 W/m2
17:10 75.7 °F /  24.3 °C 46.1 °F /  7.8 °C 30.22in /  1023.2hPa NE 8mph /  12.9km/h 16mph /  25.7km/h 35% 0.00in /  0mm 259 W/m2
17:20 75.3 °F /  24.1 °C 45.7 °F /  7.6 °C 30.22in /  1023.2hPa NE 5mph /  8km/h 15mph /  24.1km/h 35% 0.00in /  0mm 225 W/m2
17:30 75 °F /  23.9 °C 45.5 °F /  7.5 °C 30.22in /  1023.2hPa NE 5mph /  8km/h 21mph /  33.8km/h 35% 0.00in /  0mm 191 W/m2
17:40 74.5 °F /  23.6 °C 46.5 °F /  8.1 °C 30.22in /  1023.2hPa ENE 8mph /  12.9km/h 18mph /  29km/h 37% 0.00in /  0mm 159 W/m2
17:50 73.9 °F /  23.3 °C 46 °F /  7.8 °C 30.22in /  1023.2hPa ENE 6mph /  9.7km/h 15mph /  24.1km/h 37% 0.00in /  0mm 129 W/m2
18:00 73.4 °F /  23 °C 45.5 °F /  7.5 °C 30.21in /  1022.9hPa ENE 5mph /  8km/h 20mph /  32.2km/h 37% 0.00in /  0mm 101 W/m2
18:10 72.9 °F /  22.7 °C 45.8 °F /  7.7 °C 30.22in /  1023.2hPa ENE 3mph /  4.8km/h 18mph /  29km/h 38% 0.00in /  0mm 75 W/m2
18:20 72.3 °F /  22.4 °C 46 °F /  7.8 °C 30.22in /  1023.2hPa ENE 3mph /  4.8km/h 18mph /  29km/h 39% 0.00in /  0mm 52 W/m2
18:30 71.8 °F /  22.1 °C 46.2 °F /  7.9 °C 30.22in /  1023.2hPa NE 3mph /  4.8km/h 9mph /  14.5km/h 40% 0.00in /  0mm 33 W/m2
18:40 71.2 °F /  21.8 °C 46.3 °F /  7.9 °C 30.22in /  1023.2hPa NE 7mph /  11.3km/h 12mph /  19.3km/h 41% 0.00in /  0mm 19 W/m2
18:50 70.6 °F /  21.4 °C 46.4 °F /  8 °C 30.22in /  1023.2hPa NNW 3mph /  4.8km/h 8mph /  12.9km/h 42% 0.00in /  0mm 4 W/m2
19:00 69.9 °F /  21.1 °C 46.3 °F /  7.9 °C 30.22in /  1023.2hPa NW 2mph /  3.2km/h 5mph /  8km/h 43% 0.00in /  0mm 0 W/m2
19:10 69.1 °F /  20.6 °C 45.6 °F /  7.6 °C 30.23in /  1023.6hPa North 3mph /  4.8km/h 6mph /  9.7km/h 43% 0.00in /  0mm 0 W/m2
19:20 68.4 °F /  20.2 °C 45 °F /  7.2 °C 30.23in /  1023.6hPa NNW 3mph /  4.8km/h 7mph /  11.3km/h 43% 0.00in /  0mm 0 W/m2
19:30 67.8 °F /  19.9 °C 44.5 °F /  6.9 °C 30.23in /  1023.6hPa NNW 6mph /  9.7km/h 9mph /  14.5km/h 43% 0.00in /  0mm 0 W/m2
19:40 67.5 °F /  19.7 °C 43.6 °F /  6.4 °C 30.23in /  1023.6hPa NNW 8mph /  12.9km/h 12mph /  19.3km/h 42% 0.00in /  0mm 0 W/m2
19:50 67.5 °F /  19.7 °C 43.6 °F /  6.4 °C 30.24in /  1023.9hPa NNW 6mph /  9.7km/h 12mph /  19.3km/h 42% 0.00in /  0mm 0 W/m2
20:00 67.1 °F /  19.5 °C 43.8 °F /  6.6 °C 30.24in /  1023.9hPa North 5mph /  8km/h 9mph /  14.5km/h 43% 0.00in /  0mm 0 W/m2
20:10 66.7 °F /  19.3 °C 44.1 °F /  6.7 °C 30.25in /  1024.3hPa East 2mph /  3.2km/h 5mph /  8km/h 44% 0.00in /  0mm 0 W/m2
20:20 65.8 °F /  18.8 °C 43.9 °F /  6.6 °C 30.25in /  1024.3hPa West 2mph /  3.2km/h 4mph /  6.4km/h 45% 0.00in /  0mm 0 W/m2
20:30 64.8 °F /  18.2 °C 44.1 °F /  6.7 °C 30.25in /  1024.3hPa NNW 1mph /  1.6km/h 3mph /  4.8km/h 47% 0.00in /  0mm 0 W/m2
20:40 63.7 °F /  17.6 °C 44.2 °F /  6.8 °C 30.26in /  1024.6hPa SSW 2mph /  3.2km/h 4mph /  6.4km/h 49% 0.00in /  0mm 0 W/m2
20:50 62.7 °F /  17.1 °C 43.7 °F /  6.5 °C 30.26in /  1024.6hPa WSW 1mph /  1.6km/h 4mph /  6.4km/h 50% 0.00in /  0mm 0 W/m2
21:00 61.9 °F /  16.6 °C 44.1 °F /  6.7 °C 30.26in /  1024.6hPa SSW 1mph /  1.6km/h 3mph /  4.8km/h 52% 0.00in /  0mm 0 W/m2
21:10 61 °F /  16.1 °C 43.8 °F /  6.6 °C 30.26in /  1024.6hPa South 3mph /  4.8km/h 6mph /  9.7km/h 53% 0.00in /  0mm 0 W/m2
21:20 60 °F /  15.6 °C 43.3 °F /  6.3 °C 30.26in /  1024.6hPa South 2mph /  3.2km/h 5mph /  8km/h 54% 0.00in /  0mm 0 W/m2
21:30 59.1 °F /  15.1 °C 42.9 °F /  6.1 °C 30.26in /  1024.6hPa South 2mph /  3.2km/h 6mph /  9.7km/h 55% 0.00in /  0mm 0 W/m2
21:40 58.5 °F /  14.7 °C 43.3 °F /  6.3 °C 30.26in /  1024.6hPa SW 2mph /  3.2km/h 5mph /  8km/h 57% 0.00in /  0mm 0 W/m2
21:50 57.9 °F /  14.4 °C 42.8 °F /  6 °C 30.26in /  1024.6hPa WNW 1mph /  1.6km/h 2mph /  3.2km/h 57% 0.00in /  0mm 0 W/m2
22:00 57.2 °F /  14 °C 42.5 °F /  5.8 °C 30.27in /  1024.9hPa SW 2mph /  3.2km/h 3mph /  4.8km/h 58% 0.00in /  0mm 0 W/m2
22:10 56.7 °F /  13.7 °C 42.5 °F /  5.8 °C 30.26in /  1024.6hPa Calm   2mph /  3.2km/h 59% 0.00in /  0mm 0 W/m2
22:20 56 °F /  13.3 °C 42.3 °F /  5.7 °C 30.26in /  1024.6hPa WSW 2mph /  3.2km/h 3mph /  4.8km/h 60% 0.00in /  0mm 0 W/m2
22:30 55.4 °F /  13 °C 42.2 °F /  5.7 °C 30.27in /  1024.9hPa SW 1mph /  1.6km/h 3mph /  4.8km/h 61% 0.00in /  0mm 0 W/m2
22:40 54.9 °F /  12.7 °C 42.1 °F /  5.6 °C 30.27in /  1024.9hPa WSW 1mph /  1.6km/h 2mph /  3.2km/h 62% 0.00in /  0mm 0 W/m2
22:50 54.5 °F /  12.5 °C 42.2 °F /  5.7 °C 30.27in /  1024.9hPa WSW 1mph /  1.6km/h 2mph /  3.2km/h 63% 0.00in /  0mm 0 W/m2
23:00 54.1 °F /  12.3 °C 42.2 °F /  5.7 °C 30.27in /  1024.9hPa WSW 1mph /  1.6km/h 2mph /  3.2km/h 64% 0.00in /  0mm 0 W/m2
23:10 53.6 °F /  12 °C 41.8 °F /  5.4 °C 30.27in /  1024.9hPa WNW 1mph /  1.6km/h 2mph /  3.2km/h 64% 0.00in /  0mm 0 W/m2
23:20 53.1 °F /  11.7 °C 41.6 °F /  5.3 °C 30.27in /  1024.9hPa WSW 2mph /  3.2km/h 3mph /  4.8km/h 65% 0.00in /  0mm 0 W/m2
23:30 52.5 °F /  11.4 °C 41.1 °F /  5.1 °C 30.27in /  1024.9hPa WSW 1mph /  1.6km/h 2mph /  3.2km/h 65% 0.00in /  0mm 0 W/m2
23:40 52.2 °F /  11.2 °C 41.5 °F /  5.3 °C 30.27in /  1024.9hPa WNW 2mph /  3.2km/h 4mph /  6.4km/h 67% 0.00in /  0mm 0 W/m2
23:50 52.3 °F /  11.3 °C 40.9 °F /  4.9 °C 30.27in /  1024.9hPa WNW 1mph /  1.6km/h 3mph /  4.8km/h 65% 0.00in /  0mm 0 W/m2
Knjazevac, Serbia
Compliments of Weather Underground - 2 mb